sensor_id;sensor_type;location;lat;lon;timestamp;pressure;altitude;pressure_sealevel;temperature;humidity
75936;BME280;64614;32.062;34.834;2023-04-03T00:01:35;101018.06;;;23.45;42.94
75936;BME280;64614;32.062;34.834;2023-04-03T00:04:02;101015.31;;;23.45;43.04
75936;BME280;64614;32.062;34.834;2023-04-03T00:06:27;101015.13;;;23.42;43.00
75936;BME280;64614;32.062;34.834;2023-04-03T00:08:53;101008.81;;;23.41;42.80
75936;BME280;64614;32.062;34.834;2023-04-03T00:11:19;101011.06;;;23.39;43.07
75936;BME280;64614;32.062;34.834;2023-04-03T00:13:46;101003.97;;;23.38;42.89
75936;BME280;64614;32.062;34.834;2023-04-03T00:16:12;101003.13;;;23.38;42.98
75936;BME280;64614;32.062;34.834;2023-04-03T00:18:38;100998.47;;;23.38;42.94
75936;BME280;64614;32.062;34.834;2023-04-03T00:21:05;100993.00;;;23.38;42.73
75936;BME280;64614;32.062;34.834;2023-04-03T00:23:31;100995.22;;;23.36;43.05
75936;BME280;64614;32.062;34.834;2023-04-03T00:25:57;100988.97;;;23.36;42.81
75936;BME280;64614;32.062;34.834;2023-04-03T00:28:23;100994.44;;;23.36;43.07
75936;BME280;64614;32.062;34.834;2023-04-03T00:30:49;100974.75;;;23.34;42.78
75936;BME280;64614;32.062;34.834;2023-04-03T00:33:15;100991.97;;;23.34;43.12
75936;BME280;64614;32.062;34.834;2023-04-03T00:35:41;100982.13;;;23.33;42.88
75936;BME280;64614;32.062;34.834;2023-04-03T00:38:07;100982.47;;;23.31;43.08
75936;BME280;64614;32.062;34.834;2023-04-03T00:40:37;100977.78;;;23.32;43.04
75936;BME280;64614;32.062;34.834;2023-04-03T00:43:13;100980.03;;;23.30;43.33
75936;BME280;64614;32.062;34.834;2023-04-03T00:45:42;100990.16;;;23.29;42.97
75936;BME280;64614;32.062;34.834;2023-04-03T00:48:12;100986.63;;;23.29;43.28
75936;BME280;64614;32.062;34.834;2023-04-03T00:50:40;100979.22;;;23.29;43.37
75936;BME280;64614;32.062;34.834;2023-04-03T00:53:11;100987.75;;;23.28;42.99
75936;BME280;64614;32.062;34.834;2023-04-03T00:55:38;100993.22;;;23.28;43.27
75936;BME280;64614;32.062;34.834;2023-04-03T00:58:06;100995.47;;;23.26;43.22
75936;BME280;64614;32.062;34.834;2023-04-03T01:00:33;100984.81;;;23.24;43.07
75936;BME280;64614;32.062;34.834;2023-04-03T01:03:00;100989.19;;;23.25;42.98
75936;BME280;64614;32.062;34.834;2023-04-03T01:05:26;100976.59;;;23.24;43.21
75936;BME280;64614;32.062;34.834;2023-04-03T01:07:52;100985.13;;;23.23;43.52
75936;BME280;64614;32.062;34.834;2023-04-03T01:10:19;100985.13;;;23.23;43.12
75936;BME280;64614;32.062;34.834;2023-04-03T01:12:48;100979.16;;;23.21;43.09
75936;BME280;64614;32.062;34.834;2023-04-03T01:15:25;100977.19;;;23.21;42.94
75936;BME280;64614;32.062;34.834;2023-04-03T01:17:56;100975.91;;;23.19;43.36
75936;BME280;64614;32.062;34.834;2023-04-03T01:25:28;100968.25;;;23.15;43.26
75936;BME280;64614;32.062;34.834;2023-04-03T01:27:54;100971.31;;;23.14;43.18
75936;BME280;64614;32.062;34.834;2023-04-03T01:30:25;100966.63;;;23.14;43.51
75936;BME280;64614;32.062;34.834;2023-04-03T01:32:53;100965.03;;;23.13;43.53
75936;BME280;64614;32.062;34.834;2023-04-03T01:35:20;100969.69;;;23.13;43.60
75936;BME280;64614;32.062;34.834;2023-04-03T01:37:45;100976.28;;;23.12;43.59
75936;BME280;64614;32.062;34.834;2023-04-03T01:40:11;100974.38;;;23.12;43.31
75936;BME280;64614;32.062;34.834;2023-04-03T01:42:37;100965.63;;;23.10;43.12
75936;BME280;64614;32.062;34.834;2023-04-03T01:45:02;100970.28;;;23.10;43.21
75936;BME280;64614;32.062;34.834;2023-04-03T01:47:28;100978.81;;;23.08;43.39
75936;BME280;64614;32.062;34.834;2023-04-03T01:49:54;100976.59;;;23.10;43.63
75936;BME280;64614;32.062;34.834;2023-04-03T01:52:19;100972.22;;;23.09;43.56
75936;BME280;64614;32.062;34.834;2023-04-03T01:54:45;100981.56;;;23.08;43.70
75936;BME280;64614;32.062;34.834;2023-04-03T01:57:11;100977.19;;;23.07;43.42
75936;BME280;64614;32.062;34.834;2023-04-03T01:59:38;100977.19;;;23.07;43.67
75936;BME280;64614;32.062;34.834;2023-04-03T02:02:03;100968.97;;;23.07;43.50
75936;BME280;64614;32.062;34.834;2023-04-03T02:04:29;100982.69;;;23.07;43.35
75936;BME280;64614;32.062;34.834;2023-04-03T02:06:55;100980.25;;;23.06;43.55
75936;BME280;64614;32.062;34.834;2023-04-03T02:09:20;100980.25;;;23.06;43.31
75936;BME280;64614;32.062;34.834;2023-04-03T02:11:46;100978.63;;;23.05;43.37
75936;BME280;64614;32.062;34.834;2023-04-03T02:14:12;100970.72;;;23.03;43.36
75936;BME280;64614;32.062;34.834;2023-04-03T02:16:38;100976.19;;;23.03;43.27
75936;BME280;64614;32.062;34.834;2023-04-03T02:19:05;100975.38;;;23.03;43.28
75936;BME280;64614;32.062;34.834;2023-04-03T02:21:30;100972.94;;;23.01;43.74
75936;BME280;64614;32.062;34.834;2023-04-03T02:23:56;100977.63;;;23.00;43.20
75936;BME280;64614;32.062;34.834;2023-04-03T02:26:22;100972.94;;;23.01;43.17
75936;BME280;64614;32.062;34.834;2023-04-03T02:28:47;100970.53;;;22.99;43.22
75936;BME280;64614;32.062;34.834;2023-04-03T02:31:13;100965.34;;;22.98;43.50
75936;BME280;64614;32.062;34.834;2023-04-03T02:33:39;100973.88;;;22.96;43.74
75936;BME280;64614;32.062;34.834;2023-04-03T02:36:05;100968.41;;;22.96;43.71
75936;BME280;64614;32.062;34.834;2023-04-03T02:38:32;100974.66;;;22.97;43.67
75936;BME280;64614;32.062;34.834;2023-04-03T02:41:05;100976.63;;;22.96;43.57
75936;BME280;64614;32.062;34.834;2023-04-03T02:43:32;100977.72;;;22.95;43.47
75936;BME280;64614;32.062;34.834;2023-04-03T02:45:58;100984.31;;;22.94;43.54
75936;BME280;64614;32.062;34.834;2023-04-03T02:48:24;100972.56;;;22.94;43.67
75936;BME280;64614;32.062;34.834;2023-04-03T02:50:50;100965.16;;;22.94;43.38
75936;BME280;64614;32.062;34.834;2023-04-03T02:53:15;100977.22;;;22.93;43.45
75936;BME280;64614;32.062;34.834;2023-04-03T02:55:41;100973.69;;;22.93;43.69
75936;BME280;64614;32.062;34.834;2023-04-03T02:58:07;100975.91;;;22.91;43.75
75936;BME280;64614;32.062;34.834;2023-04-03T03:00:33;100962.22;;;22.91;43.68
75936;BME280;64614;32.062;34.834;2023-04-03T03:02:59;100969.91;;;22.89;43.31
75936;BME280;64614;32.062;34.834;2023-04-03T03:05:25;100970.75;;;22.89;43.66
75936;BME280;64614;32.062;34.834;2023-04-03T03:07:51;100969.13;;;22.88;43.51
75936;BME280;64614;32.062;34.834;2023-04-03T03:10:17;100957.34;;;22.88;43.78
75936;BME280;64614;32.062;34.834;2023-04-03T03:12:43;100950.25;;;22.87;43.72
75936;BME280;64614;32.062;34.834;2023-04-03T03:15:09;100952.50;;;22.84;43.90
75936;BME280;64614;32.062;34.834;2023-04-03T03:17:36;100963.44;;;22.84;43.87
75936;BME280;64614;32.062;34.834;2023-04-03T03:22:37;100950.88;;;22.83;43.68
75936;BME280;64614;32.062;34.834;2023-04-03T03:25:02;100953.41;;;22.80;43.54
75936;BME280;64614;32.062;34.834;2023-04-03T03:27:28;100948.25;;;22.78;43.60
75936;BME280;64614;32.062;34.834;2023-04-03T03:29:54;100961.63;;;22.80;43.43
75936;BME280;64614;32.062;34.834;2023-04-03T03:32:20;100960.78;;;22.79;43.91
75936;BME280;64614;32.062;34.834;2023-04-03T03:34:45;100963.84;;;22.78;43.92
75936;BME280;64614;32.062;34.834;2023-04-03T03:37:11;100963.84;;;22.78;43.92
75936;BME280;64614;32.062;34.834;2023-04-03T03:39:37;100964.16;;;22.76;43.35
75936;BME280;64614;32.062;34.834;2023-04-03T03:42:03;100960.59;;;22.76;43.95
75936;BME280;64614;32.062;34.834;2023-04-03T03:44:29;100964.16;;;22.76;43.60
75936;BME280;64614;32.062;34.834;2023-04-03T03:46:55;100955.13;;;22.76;43.86
75936;BME280;64614;32.062;34.834;2023-04-03T03:49:21;100961.44;;;22.76;43.96
75936;BME280;64614;32.062;34.834;2023-04-03T03:51:47;100957.84;;;22.76;43.71
75936;BME280;64614;32.062;34.834;2023-04-03T03:54:13;100960.59;;;22.76;43.77
75936;BME280;64614;32.062;34.834;2023-04-03T03:56:39;100953.50;;;22.75;43.77
75936;BME280;64614;32.062;34.834;2023-04-03T03:59:05;100957.06;;;22.75;43.67
75936;BME280;64614;32.062;34.834;2023-04-03T04:01:31;100961.44;;;22.76;43.63
75936;BME280;64614;32.062;34.834;2023-04-03T04:03:57;100955.44;;;22.74;43.64
75936;BME280;64614;32.062;34.834;2023-04-03T04:06:23;100952.69;;;22.74;43.66
75936;BME280;64614;32.062;34.834;2023-04-03T04:08:49;100962.53;;;22.75;43.81
75936;BME280;64614;32.062;34.834;2023-04-03T04:11:15;100961.72;;;22.75;43.48
75936;BME280;64614;32.062;34.834;2023-04-03T04:13:41;100963.66;;;22.74;43.54
75936;BME280;64614;32.062;34.834;2023-04-03T04:16:07;100963.66;;;22.74;43.86
75936;BME280;64614;32.062;34.834;2023-04-03T04:18:33;100958.69;;;22.76;43.83
75936;BME280;64614;32.062;34.834;2023-04-03T04:20:59;100967.69;;;22.77;43.69
75936;BME280;64614;32.062;34.834;2023-04-03T04:23:25;100964.44;;;22.75;43.66
75936;BME280;64614;32.062;34.834;2023-04-03T04:25:50;100969.94;;;22.75;43.63
75936;BME280;64614;32.062;34.834;2023-04-03T04:28:17;100974.50;;;22.79;43.47
75936;BME280;64614;32.062;34.834;2023-04-03T04:30:43;100975.31;;;22.80;43.56
75936;BME280;64614;32.062;34.834;2023-04-03T04:33:09;100966.28;;;22.79;43.85
75936;BME280;64614;32.062;34.834;2023-04-03T04:35:50;100971.16;;;22.82;43.84
75936;BME280;64614;32.062;34.834;2023-04-03T04:38:17;100961.81;;;22.83;44.14
75936;BME280;64614;32.062;34.834;2023-04-03T04:40:43;100960.59;;;22.90;43.85
75936;BME280;64614;32.062;34.834;2023-04-03T04:43:09;100962.91;;;22.96;43.97
75936;BME280;64614;32.062;34.834;2023-04-03T04:45:36;100961.41;;;23.04;44.09
75936;BME280;64614;32.062;34.834;2023-04-03T04:48:01;100962.56;;;23.12;44.15
75936;BME280;64614;32.062;34.834;2023-04-03T04:50:27;100962.38;;;23.22;43.53
75936;BME280;64614;32.062;34.834;2023-04-03T04:52:53;100961.84;;;23.34;43.29
75936;BME280;64614;32.062;34.834;2023-04-03T04:57:54;100967.59;;;23.69;43.54
75936;BME280;64614;32.062;34.834;2023-04-03T05:00:32;100963.31;;;24.00;43.56
75936;BME280;64614;32.062;34.834;2023-04-03T05:03:00;100963.13;;;24.28;44.01
75936;BME280;64614;32.062;34.834;2023-04-03T05:05:25;100946.63;;;24.59;43.76
75936;BME280;64614;32.062;34.834;2023-04-03T05:07:51;100950.25;;;24.95;43.80
75936;BME280;64614;32.062;34.834;2023-04-03T05:10:26;100949.00;;;25.27;43.53
75936;BME280;64614;32.062;34.834;2023-04-03T05:12:51;100949.19;;;25.57;43.09
75936;BME280;64614;32.062;34.834;2023-04-03T05:15:20;100957.09;;;25.85;43.18
75936;BME280;64614;32.062;34.834;2023-04-03T05:17:45;100956.03;;;26.16;42.70
75936;BME280;64614;32.062;34.834;2023-04-03T05:20:12;100950.59;;;26.46;42.25
75936;BME280;64614;32.062;34.834;2023-04-03T05:22:37;100953.66;;;26.74;41.57
75936;BME280;64614;32.062;34.834;2023-04-03T05:25:04;100947.00;;;27.05;40.41
75936;BME280;64614;32.062;34.834;2023-04-03T05:27:30;100945.53;;;27.29;39.34
75936;BME280;64614;32.062;34.834;2023-04-03T05:29:58;100952.00;;;27.55;40.08
75936;BME280;64614;32.062;34.834;2023-04-03T05:32:25;100943.44;;;27.81;40.43
75936;BME280;64614;32.062;34.834;2023-04-03T05:34:54;100942.00;;;28.08;39.75
75936;BME280;64614;32.062;34.834;2023-04-03T05:37:19;100943.66;;;28.34;39.73
75936;BME280;64614;32.062;34.834;2023-04-03T05:39:45;100944.00;;;28.57;39.63
75936;BME280;64614;32.062;34.834;2023-04-03T05:42:11;100951.03;;;28.80;39.35
75936;BME280;64614;32.062;34.834;2023-04-03T05:44:38;100952.47;;;29.02;39.45
75936;BME280;64614;32.062;34.834;2023-04-03T05:47:04;100944.25;;;29.18;39.15
75936;BME280;64614;32.062;34.834;2023-04-03T05:49:30;100947.47;;;29.32;39.44
75936;BME280;64614;32.062;34.834;2023-04-03T05:51:56;100942.25;;;29.43;39.15
75936;BME280;64614;32.062;34.834;2023-04-03T05:54:28;100942.53;;;29.54;39.05
75936;BME280;64614;32.062;34.834;2023-04-03T05:56:54;100933.72;;;29.64;38.94
75936;BME280;64614;32.062;34.834;2023-04-03T05:59:20;100931.84;;;29.68;38.66
75936;BME280;64614;32.062;34.834;2023-04-03T06:01:47;100926.50;;;29.76;38.79
75936;BME280;64614;32.062;34.834;2023-04-03T06:04:13;100928.56;;;29.79;38.63
75936;BME280;64614;32.062;34.834;2023-04-03T06:06:57;100923.03;;;29.79;38.92
75936;BME280;64614;32.062;34.834;2023-04-03T06:09:25;100921.88;;;29.80;38.63
75936;BME280;64614;32.062;34.834;2023-04-03T06:11:52;100924.19;;;29.78;38.47
75936;BME280;64614;32.062;34.834;2023-04-03T06:14:18;100917.03;;;29.77;38.13
75936;BME280;64614;32.062;34.834;2023-04-03T06:16:44;100923.28;;;29.74;38.07
75936;BME280;64614;32.062;34.834;2023-04-03T06:19:11;100915.69;;;29.70;38.05
75936;BME280;64614;32.062;34.834;2023-04-03T06:21:37;100931.38;;;29.66;38.03
75936;BME280;64614;32.062;34.834;2023-04-03T06:24:06;100922.56;;;29.61;37.99
75936;BME280;64614;32.062;34.834;2023-04-03T06:26:33;100922.00;;;29.55;38.33
75936;BME280;64614;32.062;34.834;2023-04-03T06:28:59;100913.94;;;29.50;38.00
75936;BME280;64614;32.062;34.834;2023-04-03T06:31:25;100915.72;;;29.42;38.31
75936;BME280;64614;32.062;34.834;2023-04-03T06:33:51;100921.50;;;29.37;38.27
75936;BME280;64614;32.062;34.834;2023-04-03T06:36:19;100909.41;;;29.29;38.00
75936;BME280;64614;32.062;34.834;2023-04-03T06:38:46;100912.00;;;29.22;38.05
75936;BME280;64614;32.062;34.834;2023-04-03T06:41:12;100923.97;;;29.14;38.21
75936;BME280;64614;32.062;34.834;2023-04-03T06:43:38;100922.97;;;29.06;38.35
75936;BME280;64614;32.062;34.834;2023-04-03T06:46:04;100917.94;;;28.96;38.07
75936;BME280;64614;32.062;34.834;2023-04-03T06:48:30;100917.38;;;28.90;38.33
75936;BME280;64614;32.062;34.834;2023-04-03T06:50:56;100916.69;;;28.81;38.45
75936;BME280;64614;32.062;34.834;2023-04-03T06:53:21;100914.88;;;28.72;38.39
75936;BME280;64614;32.062;34.834;2023-04-03T06:55:47;100919.69;;;28.63;38.32
75936;BME280;64614;32.062;34.834;2023-04-03T06:58:13;100915.09;;;28.55;38.19
75936;BME280;64614;32.062;34.834;2023-04-03T07:00:40;100911.31;;;28.47;38.59
75936;BME280;64614;32.062;34.834;2023-04-03T07:03:07;100909.47;;;28.39;38.47
75936;BME280;64614;32.062;34.834;2023-04-03T07:05:33;100914.44;;;28.33;38.16
75936;BME280;64614;32.062;34.834;2023-04-03T07:07:58;100907.06;;;28.25;38.50
75936;BME280;64614;32.062;34.834;2023-04-03T07:10:24;100902.78;;;28.15;38.11
75936;BME280;64614;32.062;34.834;2023-04-03T07:12:50;100903.84;;;28.10;38.58
75936;BME280;64614;32.062;34.834;2023-04-03T07:15:16;100907.94;;;28.04;38.62
75936;BME280;64614;32.062;34.834;2023-04-03T07:17:42;100908.84;;;27.96;38.54
75936;BME280;64614;32.062;34.834;2023-04-03T07:20:08;100908.63;;;27.89;38.62
75936;BME280;64614;32.062;34.834;2023-04-03T07:22:34;100913.19;;;27.84;38.23
75936;BME280;64614;32.062;34.834;2023-04-03T07:25:00;100909.41;;;27.77;38.35
75936;BME280;64614;32.062;34.834;2023-04-03T07:27:26;100911.56;;;27.71;38.43
75936;BME280;64614;32.062;34.834;2023-04-03T07:29:52;100904.63;;;27.65;38.16
75936;BME280;64614;32.062;34.834;2023-04-03T07:32:17;100904.88;;;27.60;38.14
75936;BME280;64614;32.062;34.834;2023-04-03T07:34:43;100909.00;;;27.54;38.63
75936;BME280;64614;32.062;34.834;2023-04-03T07:37:10;100899.31;;;27.47;38.82
75936;BME280;64614;32.062;34.834;2023-04-03T07:39:35;100905.00;;;27.42;38.15
75936;BME280;64614;32.062;34.834;2023-04-03T07:42:01;100895.34;;;27.36;38.22
75936;BME280;64614;32.062;34.834;2023-04-03T07:44:28;100897.50;;;27.30;38.47
75936;BME280;64614;32.062;34.834;2023-04-03T07:46:54;100891.03;;;27.26;38.64
75936;BME280;64614;32.062;34.834;2023-04-03T07:49:21;100887.38;;;27.22;38.67
75936;BME280;64614;32.062;34.834;2023-04-03T07:51:49;100880.41;;;27.16;38.33
75936;BME280;64614;32.062;34.834;2023-04-03T07:54:15;100882.59;;;27.10;38.70
75936;BME280;64614;32.062;34.834;2023-04-03T07:56:41;100888.78;;;27.07;38.33
75936;BME280;64614;32.062;34.834;2023-04-03T07:59:09;100885.06;;;27.03;38.43
75936;BME280;64614;32.062;34.834;2023-04-03T08:01:36;100880.13;;;26.96;38.19
75936;BME280;64614;32.062;34.834;2023-04-03T08:04:02;100878.03;;;26.93;38.51
75936;BME280;64614;32.062;34.834;2023-04-03T08:06:28;100882.94;;;26.87;38.44
75936;BME280;64614;32.062;34.834;2023-04-03T08:08:55;100885.22;;;26.85;38.30
75936;BME280;64614;32.062;34.834;2023-04-03T08:11:21;100877.94;;;26.81;38.83
75936;BME280;64614;32.062;34.834;2023-04-03T08:13:49;100872.63;;;26.75;38.48
75936;BME280;64614;32.062;34.834;2023-04-03T08:16:20;100882.38;;;26.73;38.66
75936;BME280;64614;32.062;34.834;2023-04-03T08:18:46;100884.16;;;26.69;38.39
75936;BME280;64614;32.062;34.834;2023-04-03T08:21:12;100871.75;;;26.63;38.75
75936;BME280;64614;32.062;34.834;2023-04-03T08:23:39;100876.78;;;26.61;38.67
75936;BME280;64614;32.062;34.834;2023-04-03T08:26:06;100873.88;;;26.57;38.53
75936;BME280;64614;32.062;34.834;2023-04-03T08:28:32;100864.69;;;26.53;38.52
75936;BME280;64614;32.062;34.834;2023-04-03T08:31:02;100871.66;;;26.50;38.74
75936;BME280;64614;32.062;34.834;2023-04-03T08:33:29;100869.59;;;26.47;38.89
75936;BME280;64614;32.062;34.834;2023-04-03T08:35:55;100858.44;;;26.43;38.89
75936;BME280;64614;32.062;34.834;2023-04-03T08:38:21;100862.63;;;26.41;38.72
75936;BME280;64614;32.062;34.834;2023-04-03T08:40:46;100864.44;;;26.37;39.00
75936;BME280;64614;32.062;34.834;2023-04-03T08:43:30;100859.28;;;26.35;38.55
75936;BME280;64614;32.062;34.834;2023-04-03T08:46:04;100853.63;;;26.32;38.68
75936;BME280;64614;32.062;34.834;2023-04-03T08:48:35;100855.44;;;26.27;38.54
75936;BME280;64614;32.062;34.834;2023-04-03T08:51:17;100847.84;;;26.24;38.41
75936;BME280;64614;32.062;34.834;2023-04-03T08:54:15;100854.97;;;26.25;38.88
75936;BME280;64614;32.062;34.834;2023-04-03T08:56:46;100859.53;;;26.21;38.70
75936;BME280;64614;32.062;34.834;2023-04-03T08:59:14;100853.06;;;26.17;38.50
75936;BME280;64614;32.062;34.834;2023-04-03T09:01:43;100849.81;;;26.15;38.79
75936;BME280;64614;32.062;34.834;2023-04-03T09:04:15;100844.31;;;26.15;38.79
75936;BME280;64614;32.062;34.834;2023-04-03T09:06:45;100833.50;;;26.10;38.85
75936;BME280;64614;32.062;34.834;2023-04-03T09:12:21;100835.13;;;26.11;38.91
75936;BME280;64614;32.062;34.834;2023-04-03T09:23:55;100819.44;;;26.03;38.83
75936;BME280;64614;32.062;34.834;2023-04-03T09:26:26;100815.41;;;26.00;39.04
75936;BME280;64614;32.062;34.834;2023-04-03T09:28:58;100817.81;;;26.02;38.54
75936;BME280;64614;32.062;34.834;2023-04-03T09:31:44;100817.34;;;26.00;39.06
75936;BME280;64614;32.062;34.834;2023-04-03T09:34:22;100811.84;;;26.00;39.21
75936;BME280;64614;32.062;34.834;2023-04-03T09:36:51;100820.75;;;25.96;38.91
75936;BME280;64614;32.062;34.834;2023-04-03T09:39:22;100820.75;;;25.96;38.62
75936;BME280;64614;32.062;34.834;2023-04-03T09:44:32;100810.22;;;25.99;39.01
75936;BME280;64614;32.062;34.834;2023-04-03T09:46:59;100801.81;;;25.95;38.66
75936;BME280;64614;32.062;34.834;2023-04-03T09:49:28;100801.81;;;25.95;38.70
75936;BME280;64614;32.062;34.834;2023-04-03T09:51:54;100800.53;;;25.92;38.80
75936;BME280;64614;32.062;34.834;2023-04-03T09:54:36;100805.56;;;25.90;38.90
75936;BME280;64614;32.062;34.834;2023-04-03T09:57:07;100793.91;;;25.93;38.86
75936;BME280;64614;32.062;34.834;2023-04-03T09:59:33;100798.13;;;25.91;38.43
75936;BME280;64614;32.062;34.834;2023-04-03T10:02:23;100800.41;;;25.89;38.89
75936;BME280;64614;32.062;34.834;2023-04-03T10:04:54;100797.16;;;25.87;38.69
75936;BME280;64614;32.062;34.834;2023-04-03T10:07:38;100790.88;;;25.86;38.67
75936;BME280;64614;32.062;34.834;2023-04-03T10:10:18;100788.78;;;25.83;39.04
75936;BME280;64614;32.062;34.834;2023-04-03T10:12:46;100783.28;;;25.83;39.06
75936;BME280;64614;32.062;34.834;2023-04-03T10:15:16;100783.91;;;25.80;39.04
75936;BME280;64614;32.062;34.834;2023-04-03T10:18:07;100786.22;;;25.78;39.25
75936;BME280;64614;32.062;34.834;2023-04-03T10:20:47;100786.66;;;25.80;39.13
75936;BME280;64614;32.062;34.834;2023-04-03T10:23:22;100773.59;;;25.77;39.07
75936;BME280;64614;32.062;34.834;2023-04-03T10:31:36;100765.34;;;25.77;39.04
75936;BME280;64614;32.062;34.834;2023-04-03T10:34:25;100769.53;;;25.74;39.15
75936;BME280;64614;32.062;34.834;2023-04-03T10:42:22;100755.00;;;25.74;38.83
75936;BME280;64614;32.062;34.834;2023-04-03T10:45:37;100758.53;;;25.74;38.77
75936;BME280;64614;32.062;34.834;2023-04-03T10:51:36;100749.84;;;25.72;39.25
75936;BME280;64614;32.062;34.834;2023-04-03T10:54:26;100740.63;;;25.68;39.01
75936;BME280;64614;32.062;34.834;2023-04-03T10:57:04;100740.69;;;25.59;38.97
75936;BME280;64614;32.062;34.834;2023-04-03T10:59:35;100741.31;;;25.56;38.78
75936;BME280;64614;32.062;34.834;2023-04-03T11:02:25;100739.22;;;25.53;38.78
75936;BME280;64614;32.062;34.834;2023-04-03T11:04:55;100741.03;;;25.49;38.55
75936;BME280;64614;32.062;34.834;2023-04-03T11:07:27;100743.16;;;25.43;38.79
75936;BME280;64614;32.062;34.834;2023-04-03T11:10:02;100746.25;;;25.42;38.52
75936;BME280;64614;32.062;34.834;2023-04-03T11:12:36;100738.94;;;25.37;38.73
75936;BME280;64614;32.062;34.834;2023-04-03T11:15:04;100729.88;;;25.37;38.54
75936;BME280;64614;32.062;34.834;2023-04-03T11:17:38;100728.25;;;25.35;38.79
75936;BME280;64614;32.062;34.834;2023-04-03T11:22:48;100716.00;;;25.33;38.68
75936;BME280;64614;32.062;34.834;2023-04-03T11:25:24;100721.34;;;25.29;38.61
75936;BME280;64614;32.062;34.834;2023-04-03T11:31:04;100715.06;;;25.29;38.67
75936;BME280;64614;32.062;34.834;2023-04-03T11:36:12;100715.06;;;25.29;38.74
75936;BME280;64614;32.062;34.834;2023-04-03T11:38:45;100699.53;;;25.24;38.65
75936;BME280;64614;32.062;34.834;2023-04-03T11:41:13;100698.41;;;25.25;38.60
75936;BME280;64614;32.062;34.834;2023-04-03T11:44:04;100702.28;;;25.24;38.50
75936;BME280;64614;32.062;34.834;2023-04-03T11:46:50;100700.00;;;25.26;38.68
75936;BME280;64614;32.062;34.834;2023-04-03T12:11:24;100660.25;;;25.24;38.72
75936;BME280;64614;32.062;34.834;2023-04-03T12:16:21;100644.09;;;25.22;38.82
75936;BME280;64614;32.062;34.834;2023-04-03T12:24:41;100642.47;;;25.21;38.79
75936;BME280;64614;32.062;34.834;2023-04-03T12:30:05;100630.34;;;25.22;38.76
75936;BME280;64614;32.062;34.834;2023-04-03T12:48:39;100586.03;;;25.24;38.80
75936;BME280;64614;32.062;34.834;2023-04-03T12:51:21;100593.97;;;25.25;38.81
75936;BME280;64614;32.062;34.834;2023-04-03T12:53:50;100586.03;;;25.24;38.67
75936;BME280;64614;32.062;34.834;2023-04-03T12:56:30;100588.47;;;25.25;38.83
75936;BME280;64614;32.062;34.834;2023-04-03T12:59:14;100582.63;;;25.27;38.71
75936;BME280;64614;32.062;34.834;2023-04-03T13:01:40;100576.31;;;25.26;38.43
75936;BME280;64614;32.062;34.834;2023-04-03T13:04:06;100568.06;;;25.26;38.83
75936;BME280;64614;32.062;34.834;2023-04-03T13:06:39;100569.69;;;25.27;39.04
75936;BME280;64614;32.062;34.834;2023-04-03T13:09:19;100568.06;;;25.26;38.83
75936;BME280;64614;32.062;34.834;2023-04-03T13:11:47;100565.31;;;25.26;38.93
75936;BME280;64614;32.062;34.834;2023-04-03T13:14:22;100565.00;;;25.28;38.85
75936;BME280;64614;32.062;34.834;2023-04-03T13:16:58;100563.53;;;25.30;38.69
75936;BME280;64614;32.062;34.834;2023-04-03T13:19:26;100567.75;;;25.28;38.71
75936;BME280;64614;32.062;34.834;2023-04-03T13:22:34;100557.06;;;25.26;38.79
75936;BME280;64614;32.062;34.834;2023-04-03T13:25:07;100553.53;;;25.26;38.50
75936;BME280;64614;32.062;34.834;2023-04-03T13:27:34;100542.06;;;25.24;38.88
75936;BME280;64614;32.062;34.834;2023-04-03T13:30:02;100544.03;;;25.23;38.80
75936;BME280;64614;32.062;34.834;2023-04-03T13:32:31;100544.81;;;25.24;38.66
75936;BME280;64614;32.062;34.834;2023-04-03T13:34:57;100543.69;;;25.25;38.75
75936;BME280;64614;32.062;34.834;2023-04-03T13:37:31;100553.88;;;25.24;38.64
75936;BME280;64614;32.062;34.834;2023-04-03T13:42:32;100540.13;;;25.24;38.65
75936;BME280;64614;32.062;34.834;2023-04-03T13:45:18;100533.50;;;25.25;38.79
75936;BME280;64614;32.062;34.834;2023-04-03T13:47:46;100529.94;;;25.25;38.83
75936;BME280;64614;32.062;34.834;2023-04-03T13:50:16;100529.16;;;25.24;38.94
75936;BME280;64614;32.062;34.834;2023-04-03T13:52:49;100517.31;;;25.24;38.87
75936;BME280;64614;32.062;34.834;2023-04-03T13:58:30;100517.31;;;25.24;38.61
75936;BME280;64614;32.062;34.834;2023-04-03T14:06:17;100523.50;;;25.21;38.66
75936;BME280;64614;32.062;34.834;2023-04-03T14:08:46;100517.66;;;25.22;38.60
75936;BME280;64614;32.062;34.834;2023-04-03T14:11:24;100518.31;;;25.19;38.70
75936;BME280;64614;32.062;34.834;2023-04-03T14:13:52;100516.72;;;25.18;38.58
75936;BME280;64614;32.062;34.834;2023-04-03T14:18:47;100519.81;;;25.16;38.74
75936;BME280;64614;32.062;34.834;2023-04-03T14:21:16;100504.78;;;25.14;38.79
75936;BME280;64614;32.062;34.834;2023-04-03T14:23:42;100515.78;;;25.14;38.63
75936;BME280;64614;32.062;34.834;2023-04-03T14:26:23;100510.28;;;25.14;38.58
75936;BME280;64614;32.062;34.834;2023-04-03T14:28:53;100511.75;;;25.11;38.72
75936;BME280;64614;32.062;34.834;2023-04-03T14:31:20;100516.44;;;25.11;38.66
75936;BME280;64614;32.062;34.834;2023-04-03T14:33:46;100503.84;;;25.10;38.63
75936;BME280;64614;32.062;34.834;2023-04-03T14:36:21;100505.78;;;25.09;38.57
75936;BME280;64614;32.062;34.834;2023-04-03T14:38:49;100510.81;;;25.07;38.64
75936;BME280;64614;32.062;34.834;2023-04-03T14:41:19;100499.03;;;25.07;38.63